Justice, IL

12:19 PM CST on December 07, 2016 (GMT -0600)
KC9POS / Hickory Hills | | Change Station

Elev 498 ft 41.72 °N, 87.82 °W | Updated 4 minutes ago

Scattered Clouds
Scattered Clouds
29.7 °F
Feels Like 20 °F
N
12.1
Wind Variable Wind from NE
Gusts 18.3 mph

Today
High -- | Low -- °F
--% Chance of Precip.
Yesterday
High -- | Low -- °F
Precip. -- in
Pressure 30.14 in
Visibility 10.0 miles
Clouds Few 15000 ft
Scattered Clouds 25000 ft
Windchill 20 °F
Dew Point 22 °F
Humidity 72%
Rainfall 0.00 in
Snow Depth Not available.
7:05 AM 4:20 PM
First Quarter, 54% visible
METAR KMDW 071753Z 23013KT 10SM FEW150 SCT250 M02/M08 A3009 RMK AO2 SLP204 T10171078 11017 21033 50000
Pressure 30.14 in
Visibility 10.0 miles
Clouds Few 15000 ft
Scattered Clouds 25000 ft
Windchill 20 °F
Dew Point 22 °F
Humidity 72%
Rainfall 0.00 in
Snow Depth Not available.
7:05 AM 4:20 PM
First Quarter, 54% visible
METAR KMDW 071753Z 23013KT 10SM FEW150 SCT250 M02/M08 A3009 RMK AO2 SLP204 T10171078 11017 21033 50000

10-Day Weather Forecast

Almanac

Astronomy

Dec. 07, 2016 Rise Set
Actual Time
Civil Twilight
Nautical Twilight
Astronomical Twilight
Moon
Length of Visible Light
Length of Day
Tomorrow will be .
, % of the Moon is Illuminated

Today's Extremes

State Highs State Lows

Community

WunderPhotos

Upload Photos

1,956,157 photos uploaded!

WunderBlog® & News

Nearby

Air Quality

  Air Quality AQ Index Pollutant
Not available.

Snow Depth

Station Depth Elevation

Earthquake Activity

City Distance Mag. Time & Date
Minimum magnitude displayed is 2.5.

Coastal Water Temperatures

Place Temperature

Stations

Nearby Weather Stations

Station Location Temp. Windchill Dew Point Humidity Wind Precip. Elev Updated Type
                   

Watches & Warnings

There are currently no watches in effect.